<?xml version='1.0' encoding='UTF-8'?>
<gpx version="1.1" creator="https://www.komoot.de" xmlns="http://www.topografix.com/GPX/1/1" xmlns:xsi="http://www.w3.org/2001/XMLSchema-instance" xsi:schemaLocation="http://www.topografix.com/GPX/1/1 http://www.topografix.com/GPX/1/1/gpx.xsd">
  <metadata>
    <name>GPX Download: Völkerschlacht-Denkmal – See der Tränen Runde von Marienbrunn</name>
    <author>
      <link href="https://www.komoot.de">
        <text>komoot</text>
        <type>text/html</type>
      </link>
    </author>
  </metadata>
  <trk>
    <name>GPX Download: Völkerschlacht-Denkmal – See der Tränen Runde von Marienbrunn</name>
    <trkseg>
      <trkpt lat="51.306358" lon="12.404209">
        <ele>133.253166</ele>
        <time>2021-07-07T04:58:33.642Z</time>
      </trkpt>
      <trkpt lat="51.305847" lon="12.405103">
        <ele>133.253166</ele>
        <time>2021-07-07T04:59:53.072Z</time>
      </trkpt>
      <trkpt lat="51.305387" lon="12.405869">
        <ele>134.026950</ele>
        <time>2021-07-07T05:01:02.998Z</time>
      </trkpt>
      <trkpt lat="51.305333" lon="12.405992">
        <ele>134.166239</ele>
        <time>2021-07-07T05:01:13.044Z</time>
      </trkpt>
      <trkpt lat="51.305252" lon="12.406179">
        <ele>134.377072</ele>
        <time>2021-07-07T05:01:28.152Z</time>
      </trkpt>
      <trkpt lat="51.305124" lon="12.406517">
        <ele>134.743300</ele>
        <time>2021-07-07T05:01:54.447Z</time>
      </trkpt>
      <trkpt lat="51.305070" lon="12.406659">
        <ele>134.897332</ele>
        <time>2021-07-07T05:02:05.378Z</time>
      </trkpt>
      <trkpt lat="51.305024" lon="12.406808">
        <ele>135.051337</ele>
        <time>2021-07-07T05:02:16.274Z</time>
      </trkpt>
      <trkpt lat="51.304961" lon="12.407012">
        <ele>135.262203</ele>
        <time>2021-07-07T05:02:31.526Z</time>
      </trkpt>
      <trkpt lat="51.304890" lon="12.407243">
        <ele>135.500756</ele>
        <time>2021-07-07T05:02:48.530Z</time>
      </trkpt>
      <trkpt lat="51.304781" lon="12.407388">
        <ele>135.710913</ele>
        <time>2021-07-07T05:03:03.620Z</time>
      </trkpt>
      <trkpt lat="51.304700" lon="12.407495">
        <ele>135.866640</ele>
        <time>2021-07-07T05:03:14.649Z</time>
      </trkpt>
      <trkpt lat="51.304511" lon="12.407560">
        <ele>136.105266</ele>
        <time>2021-07-07T05:03:34.682Z</time>
      </trkpt>
      <trkpt lat="51.304505" lon="12.407591">
        <ele>136.129172</ele>
        <time>2021-07-07T05:03:36.896Z</time>
      </trkpt>
      <trkpt lat="51.304568" lon="12.408011">
        <ele>136.447355</ele>
        <time>2021-07-07T05:04:04.978Z</time>
      </trkpt>
      <trkpt lat="51.304539" lon="12.408176">
        <ele>136.573617</ele>
        <time>2021-07-07T05:04:16.093Z</time>
      </trkpt>
      <trkpt lat="51.304513" lon="12.408213">
        <ele>136.614624</ele>
        <time>2021-07-07T05:04:19.895Z</time>
      </trkpt>
      <trkpt lat="51.304494" lon="12.408456">
        <ele>136.795030</ele>
        <time>2021-07-07T05:04:35.770Z</time>
      </trkpt>
      <trkpt lat="51.304438" lon="12.409707">
        <ele>137.718965</ele>
        <time>2021-07-07T05:05:57.833Z</time>
      </trkpt>
      <trkpt lat="51.304445" lon="12.410384">
        <ele>138.258658</ele>
        <time>2021-07-07T05:06:41.614Z</time>
      </trkpt>
      <trkpt lat="51.304440" lon="12.411634">
        <ele>139.390019</ele>
        <time>2021-07-07T05:08:03.713Z</time>
      </trkpt>
      <trkpt lat="51.303896" lon="12.411255">
        <ele>140.249024</ele>
        <time>2021-07-07T05:09:06.781Z</time>
      </trkpt>
      <trkpt lat="51.303824" lon="12.411192">
        <ele>140.367835</ele>
        <time>2021-07-07T05:09:15.584Z</time>
      </trkpt>
      <trkpt lat="51.303896" lon="12.411255">
        <ele>140.486646</ele>
        <time>2021-07-07T05:09:24.493Z</time>
      </trkpt>
      <trkpt lat="51.304440" lon="12.411634">
        <ele>141.316410</ele>
        <time>2021-07-07T05:10:27.400Z</time>
      </trkpt>
      <trkpt lat="51.304528" lon="12.411871">
        <ele>141.555513</ele>
        <time>2021-07-07T05:10:45.506Z</time>
      </trkpt>
      <trkpt lat="51.304495" lon="12.412508">
        <ele>142.109952</ele>
        <time>2021-07-07T05:11:26.974Z</time>
      </trkpt>
      <trkpt lat="51.304715" lon="12.412504">
        <ele>142.415214</ele>
        <time>2021-07-07T05:11:49.978Z</time>
      </trkpt>
      <trkpt lat="51.304675" lon="12.413187">
        <ele>143.010253</ele>
        <time>2021-07-07T05:12:35.509Z</time>
      </trkpt>
      <trkpt lat="51.304673" lon="12.413239">
        <ele>143.055444</ele>
        <time>2021-07-07T05:12:38.905Z</time>
      </trkpt>
      <trkpt lat="51.304642" lon="12.413933">
        <ele>143.476882</ele>
        <time>2021-07-07T05:13:24.400Z</time>
      </trkpt>
      <trkpt lat="51.304584" lon="12.414525">
        <ele>143.814892</ele>
        <time>2021-07-07T05:14:03.068Z</time>
      </trkpt>
      <trkpt lat="51.304456" lon="12.416216">
        <ele>144.779336</ele>
        <time>2021-07-07T05:15:52.609Z</time>
      </trkpt>
      <trkpt lat="51.304477" lon="12.417996">
        <ele>146.032811</ele>
        <time>2021-07-07T05:17:48.277Z</time>
      </trkpt>
      <trkpt lat="51.304478" lon="12.418076">
        <ele>146.089148</ele>
        <time>2021-07-07T05:17:53.592Z</time>
      </trkpt>
      <trkpt lat="51.304480" lon="12.418199">
        <ele>146.175778</ele>
        <time>2021-07-07T05:18:01.628Z</time>
      </trkpt>
      <trkpt lat="51.304481" lon="12.418220">
        <ele>146.190607</ele>
        <time>2021-07-07T05:18:03.015Z</time>
      </trkpt>
      <trkpt lat="51.304485" lon="12.418413">
        <ele>146.326567</ele>
        <time>2021-07-07T05:18:15.738Z</time>
      </trkpt>
      <trkpt lat="51.304507" lon="12.418999">
        <ele>146.739898</ele>
        <time>2021-07-07T05:18:54.173Z</time>
      </trkpt>
      <trkpt lat="51.304536" lon="12.419738">
        <ele>147.261338</ele>
        <time>2021-07-07T05:19:43.492Z</time>
      </trkpt>
      <trkpt lat="51.304576" lon="12.420528">
        <ele>147.819501</ele>
        <time>2021-07-07T05:20:36.315Z</time>
      </trkpt>
      <trkpt lat="51.304578" lon="12.420565">
        <ele>147.845654</ele>
        <time>2021-07-07T05:20:38.908Z</time>
      </trkpt>
      <trkpt lat="51.304619" lon="12.421260">
        <ele>148.337268</ele>
        <time>2021-07-07T05:21:24.129Z</time>
      </trkpt>
      <trkpt lat="51.304711" lon="12.421279">
        <ele>148.441761</ele>
        <time>2021-07-07T05:21:33.890Z</time>
      </trkpt>
      <trkpt lat="51.305039" lon="12.421318">
        <ele>148.812253</ele>
        <time>2021-07-07T05:22:07.184Z</time>
      </trkpt>
      <trkpt lat="51.305349" lon="12.421212">
        <ele>148.689017</ele>
        <time>2021-07-07T05:22:39.061Z</time>
      </trkpt>
      <trkpt lat="51.305517" lon="12.421257">
        <ele>148.622383</ele>
        <time>2021-07-07T05:22:56.242Z</time>
      </trkpt>
      <trkpt lat="51.305562" lon="12.421321">
        <ele>148.598828</ele>
        <time>2021-07-07T05:23:02.480Z</time>
      </trkpt>
      <trkpt lat="51.305697" lon="12.421718">
        <ele>148.488306</ele>
        <time>2021-07-07T05:23:31.222Z</time>
      </trkpt>
      <trkpt lat="51.305779" lon="12.422110">
        <ele>148.387217</ele>
        <time>2021-07-07T05:23:57.429Z</time>
      </trkpt>
      <trkpt lat="51.305839" lon="12.422620">
        <ele>148.260305</ele>
        <time>2021-07-07T05:24:30.331Z</time>
      </trkpt>
      <trkpt lat="51.305839" lon="12.422620">
        <ele>148.260305</ele>
        <time>2021-07-07T05:24:30.376Z</time>
      </trkpt>
      <trkpt lat="51.305839" lon="12.422620">
        <ele>148.260305</ele>
        <time>2021-07-07T05:24:30.409Z</time>
      </trkpt>
      <trkpt lat="51.305946" lon="12.422569">
        <ele>148.216630</ele>
        <time>2021-07-07T05:24:41.887Z</time>
      </trkpt>
      <trkpt lat="51.306465" lon="12.422372">
        <ele>147.924305</ele>
        <time>2021-07-07T05:25:35.996Z</time>
      </trkpt>
      <trkpt lat="51.306574" lon="12.422413">
        <ele>147.844312</ele>
        <time>2021-07-07T05:25:47.638Z</time>
      </trkpt>
      <trkpt lat="51.306698" lon="12.422360">
        <ele>147.752619</ele>
        <time>2021-07-07T05:26:00.713Z</time>
      </trkpt>
      <trkpt lat="51.306743" lon="12.422341">
        <ele>147.719370</ele>
        <time>2021-07-07T05:26:05.501Z</time>
      </trkpt>
      <trkpt lat="51.306934" lon="12.422258">
        <ele>147.577975</ele>
        <time>2021-07-07T05:26:25.919Z</time>
      </trkpt>
      <trkpt lat="51.307015" lon="12.422112">
        <ele>147.490797</ele>
        <time>2021-07-07T05:26:38.311Z</time>
      </trkpt>
      <trkpt lat="51.307403" lon="12.421938">
        <ele>147.202924</ele>
        <time>2021-07-07T05:27:19.218Z</time>
      </trkpt>
      <trkpt lat="51.307603" lon="12.421862">
        <ele>147.056069</ele>
        <time>2021-07-07T05:27:40.010Z</time>
      </trkpt>
      <trkpt lat="51.307990" lon="12.421714">
        <ele>146.811232</ele>
        <time>2021-07-07T05:28:20.267Z</time>
      </trkpt>
      <trkpt lat="51.308206" lon="12.421525">
        <ele>146.767489</ele>
        <time>2021-07-07T05:28:44.919Z</time>
      </trkpt>
      <trkpt lat="51.308292" lon="12.421398">
        <ele>146.746694</ele>
        <time>2021-07-07T05:28:56.801Z</time>
      </trkpt>
      <trkpt lat="51.308555" lon="12.420986">
        <ele>146.681293</ele>
        <time>2021-07-07T05:29:33.849Z</time>
      </trkpt>
      <trkpt lat="51.308788" lon="12.420608">
        <ele>146.622333</ele>
        <time>2021-07-07T05:30:07.306Z</time>
      </trkpt>
      <trkpt lat="51.308839" lon="12.420509">
        <ele>146.608085</ele>
        <time>2021-07-07T05:30:15.436Z</time>
      </trkpt>
      <trkpt lat="51.308867" lon="12.420454">
        <ele>146.600207</ele>
        <time>2021-07-07T05:30:19.905Z</time>
      </trkpt>
      <trkpt lat="51.310854" lon="12.417391">
        <ele>146.694110</ele>
        <time>2021-07-07T05:34:56.579Z</time>
      </trkpt>
      <trkpt lat="51.311003" lon="12.417286">
        <ele>146.761868</ele>
        <time>2021-07-07T05:35:13.147Z</time>
      </trkpt>
      <trkpt lat="51.311066" lon="12.417185">
        <ele>146.798985</ele>
        <time>2021-07-07T05:35:22.205Z</time>
      </trkpt>
      <trkpt lat="51.311086" lon="12.417153">
        <ele>146.810757</ele>
        <time>2021-07-07T05:35:24.980Z</time>
      </trkpt>
      <trkpt lat="51.311118" lon="12.417103">
        <ele>146.829372</ele>
        <time>2021-07-07T05:35:29.597Z</time>
      </trkpt>
      <trkpt lat="51.311421" lon="12.416637">
        <ele>147.004287</ele>
        <time>2021-07-07T05:36:12.503Z</time>
      </trkpt>
      <trkpt lat="51.311473" lon="12.416559">
        <ele>147.033952</ele>
        <time>2021-07-07T05:36:19.806Z</time>
      </trkpt>
      <trkpt lat="51.311523" lon="12.416483">
        <ele>147.062654</ele>
        <time>2021-07-07T05:36:26.860Z</time>
      </trkpt>
      <trkpt lat="51.311595" lon="12.416376">
        <ele>147.103551</ele>
        <time>2021-07-07T05:36:36.800Z</time>
      </trkpt>
      <trkpt lat="51.311619" lon="12.416339">
        <ele>147.117422</ele>
        <time>2021-07-07T05:36:40.111Z</time>
      </trkpt>
      <trkpt lat="51.311905" lon="12.415911">
        <ele>147.328172</ele>
        <time>2021-07-07T05:37:20.149Z</time>
      </trkpt>
      <trkpt lat="51.311871" lon="12.415740">
        <ele>147.534931</ele>
        <time>2021-07-07T05:37:31.724Z</time>
      </trkpt>
      <trkpt lat="51.311879" lon="12.415504">
        <ele>147.807259</ele>
        <time>2021-07-07T05:37:46.833Z</time>
      </trkpt>
      <trkpt lat="51.311705" lon="12.415345">
        <ele>148.176635</ele>
        <time>2021-07-07T05:38:08.292Z</time>
      </trkpt>
      <trkpt lat="51.311459" lon="12.414958">
        <ele>148.812614</ele>
        <time>2021-07-07T05:38:44.962Z</time>
      </trkpt>
      <trkpt lat="51.311265" lon="12.414265">
        <ele>149.687542</ele>
        <time>2021-07-07T05:39:35.857Z</time>
      </trkpt>
      <trkpt lat="51.311275" lon="12.413973">
        <ele>150.024503</ele>
        <time>2021-07-07T05:39:56.276Z</time>
      </trkpt>
      <trkpt lat="51.311410" lon="12.413691">
        <ele>150.433782</ele>
        <time>2021-07-07T05:40:20.239Z</time>
      </trkpt>
      <trkpt lat="51.311443" lon="12.413674">
        <ele>150.497688</ele>
        <time>2021-07-07T05:40:24.057Z</time>
      </trkpt>
      <trkpt lat="51.311454" lon="12.413625">
        <ele>150.557679</ele>
        <time>2021-07-07T05:40:28.361Z</time>
      </trkpt>
      <trkpt lat="51.311573" lon="12.413306">
        <ele>151.056057</ele>
        <time>2021-07-07T05:40:53.530Z</time>
      </trkpt>
      <trkpt lat="51.312077" lon="12.412240">
        <ele>152.864406</ele>
        <time>2021-07-07T05:42:24.354Z</time>
      </trkpt>
      <trkpt lat="51.312346" lon="12.412579">
        <ele>153.605594</ele>
        <time>2021-07-07T05:43:01.595Z</time>
      </trkpt>
      <trkpt lat="51.312415" lon="12.412674">
        <ele>153.802633</ele>
        <time>2021-07-07T05:43:11.690Z</time>
      </trkpt>
      <trkpt lat="51.312543" lon="12.412849">
        <ele>154.167070</ele>
        <time>2021-07-07T05:43:29.419Z</time>
      </trkpt>
      <trkpt lat="51.312618" lon="12.412713">
        <ele>154.412443</ele>
        <time>2021-07-07T05:43:41.593Z</time>
      </trkpt>
      <trkpt lat="51.312467" lon="12.412506">
        <ele>154.284550</ele>
        <time>2021-07-07T05:44:02.485Z</time>
      </trkpt>
      <trkpt lat="51.312618" lon="12.412713">
        <ele>154.061615</ele>
        <time>2021-07-07T05:44:23.010Z</time>
      </trkpt>
      <trkpt lat="51.312543" lon="12.412849">
        <ele>153.934521</ele>
        <time>2021-07-07T05:44:34.449Z</time>
      </trkpt>
      <trkpt lat="51.312673" lon="12.413027">
        <ele>153.742688</ele>
        <time>2021-07-07T05:44:51.773Z</time>
      </trkpt>
      <trkpt lat="51.312770" lon="12.413156">
        <ele>153.601274</ele>
        <time>2021-07-07T05:45:05.024Z</time>
      </trkpt>
      <trkpt lat="51.312725" lon="12.413228">
        <ele>153.529924</ele>
        <time>2021-07-07T05:45:11.785Z</time>
      </trkpt>
      <trkpt lat="51.312577" lon="12.413032">
        <ele>153.314527</ele>
        <time>2021-07-07T05:45:31.258Z</time>
      </trkpt>
      <trkpt lat="51.312558" lon="12.413069">
        <ele>153.280971</ele>
        <time>2021-07-07T05:45:34.436Z</time>
      </trkpt>
      <trkpt lat="51.312577" lon="12.413032">
        <ele>153.247415</ele>
        <time>2021-07-07T05:45:37.643Z</time>
      </trkpt>
      <trkpt lat="51.312725" lon="12.413228">
        <ele>153.032019</ele>
        <time>2021-07-07T05:45:57.848Z</time>
      </trkpt>
      <trkpt lat="51.312770" lon="12.413156">
        <ele>152.960669</ele>
        <time>2021-07-07T05:46:04.542Z</time>
      </trkpt>
      <trkpt lat="51.312673" lon="12.413027">
        <ele>152.819255</ele>
        <time>2021-07-07T05:46:18.046Z</time>
      </trkpt>
      <trkpt lat="51.312543" lon="12.412849">
        <ele>152.627421</ele>
        <time>2021-07-07T05:46:36.343Z</time>
      </trkpt>
      <trkpt lat="51.312618" lon="12.412713">
        <ele>152.500328</ele>
        <time>2021-07-07T05:46:47.970Z</time>
      </trkpt>
      <trkpt lat="51.312673" lon="12.412605">
        <ele>152.285113</ele>
        <time>2021-07-07T05:46:57.457Z</time>
      </trkpt>
      <trkpt lat="51.312733" lon="12.412493">
        <ele>151.964254</ele>
        <time>2021-07-07T05:47:07.263Z</time>
      </trkpt>
      <trkpt lat="51.312571" lon="12.412280">
        <ele>151.234534</ele>
        <time>2021-07-07T05:47:29.285Z</time>
      </trkpt>
      <trkpt lat="51.312500" lon="12.412188">
        <ele>150.916577</ele>
        <time>2021-07-07T05:47:39.592Z</time>
      </trkpt>
      <trkpt lat="51.313334" lon="12.410394">
        <ele>146.128923</ele>
        <time>2021-07-07T05:50:10.861Z</time>
      </trkpt>
      <trkpt lat="51.313482" lon="12.410351">
        <ele>145.876546</ele>
        <time>2021-07-07T05:50:26.700Z</time>
      </trkpt>
      <trkpt lat="51.313697" lon="12.410647">
        <ele>145.400640</ele>
        <time>2021-07-07T05:50:56.490Z</time>
      </trkpt>
      <trkpt lat="51.313717" lon="12.410611">
        <ele>145.350128</ele>
        <time>2021-07-07T05:50:59.548Z</time>
      </trkpt>
      <trkpt lat="51.313800" lon="12.410456">
        <ele>145.136082</ele>
        <time>2021-07-07T05:51:12.821Z</time>
      </trkpt>
      <trkpt lat="51.314181" lon="12.409764">
        <ele>144.168977</ele>
        <time>2021-07-07T05:52:12.415Z</time>
      </trkpt>
      <trkpt lat="51.314199" lon="12.409731">
        <ele>144.123045</ele>
        <time>2021-07-07T05:52:15.229Z</time>
      </trkpt>
      <trkpt lat="51.313987" lon="12.409437">
        <ele>143.652321</ele>
        <time>2021-07-07T05:52:44.035Z</time>
      </trkpt>
      <trkpt lat="51.313882" lon="12.409286">
        <ele>143.415440</ele>
        <time>2021-07-07T05:52:58.320Z</time>
      </trkpt>
      <trkpt lat="51.313852" lon="12.409273">
        <ele>143.363292</ele>
        <time>2021-07-07T05:53:01.517Z</time>
      </trkpt>
      <trkpt lat="51.313769" lon="12.409320">
        <ele>143.215569</ele>
        <time>2021-07-07T05:53:10.557Z</time>
      </trkpt>
      <trkpt lat="51.313749" lon="12.409159">
        <ele>143.148449</ele>
        <time>2021-07-07T05:53:21.044Z</time>
      </trkpt>
      <trkpt lat="51.313750" lon="12.408747">
        <ele>143.044853</ele>
        <time>2021-07-07T05:53:46.923Z</time>
      </trkpt>
      <trkpt lat="51.313622" lon="12.407707">
        <ele>142.778327</ele>
        <time>2021-07-07T05:54:53.524Z</time>
      </trkpt>
      <trkpt lat="51.313530" lon="12.407469">
        <ele>142.707963</ele>
        <time>2021-07-07T05:55:11.184Z</time>
      </trkpt>
      <trkpt lat="51.313711" lon="12.407184">
        <ele>142.605801</ele>
        <time>2021-07-07T05:55:36.783Z</time>
      </trkpt>
      <trkpt lat="51.313793" lon="12.407236">
        <ele>142.570317</ele>
        <time>2021-07-07T05:55:45.713Z</time>
      </trkpt>
      <trkpt lat="51.313811" lon="12.407170">
        <ele>142.552211</ele>
        <time>2021-07-07T05:55:50.220Z</time>
      </trkpt>
      <trkpt lat="51.313815" lon="12.407157">
        <ele>142.548568</ele>
        <time>2021-07-07T05:55:51.147Z</time>
      </trkpt>
      <trkpt lat="51.313847" lon="12.407023">
        <ele>142.512498</ele>
        <time>2021-07-07T05:56:00.187Z</time>
      </trkpt>
      <trkpt lat="51.313782" lon="12.406981">
        <ele>142.484298</ele>
        <time>2021-07-07T05:56:07.264Z</time>
      </trkpt>
      <trkpt lat="51.313830" lon="12.406673">
        <ele>142.237375</ele>
        <time>2021-07-07T05:56:27.284Z</time>
      </trkpt>
      <trkpt lat="51.313831" lon="12.406668">
        <ele>142.231935</ele>
        <time>2021-07-07T05:56:27.627Z</time>
      </trkpt>
      <trkpt lat="51.313833" lon="12.406658">
        <ele>142.221054</ele>
        <time>2021-07-07T05:56:28.331Z</time>
      </trkpt>
      <trkpt lat="51.313843" lon="12.406594">
        <ele>142.152690</ele>
        <time>2021-07-07T05:56:32.731Z</time>
      </trkpt>
      <trkpt lat="51.313665" lon="12.406576">
        <ele>141.856986</ele>
        <time>2021-07-07T05:56:50.940Z</time>
      </trkpt>
      <trkpt lat="51.313511" lon="12.406183">
        <ele>141.376299</ele>
        <time>2021-07-07T05:57:20.826Z</time>
      </trkpt>
      <trkpt lat="51.313386" lon="12.405815">
        <ele>140.942262</ele>
        <time>2021-07-07T05:57:48.247Z</time>
      </trkpt>
      <trkpt lat="51.313278" lon="12.405474">
        <ele>140.546102</ele>
        <time>2021-07-07T05:58:12.993Z</time>
      </trkpt>
      <trkpt lat="51.313238" lon="12.405502">
        <ele>140.473714</ele>
        <time>2021-07-07T05:58:17.371Z</time>
      </trkpt>
      <trkpt lat="51.312960" lon="12.405303">
        <ele>139.968771</ele>
        <time>2021-07-07T05:58:49.545Z</time>
      </trkpt>
      <trkpt lat="51.312909" lon="12.405242">
        <ele>139.863197</ele>
        <time>2021-07-07T05:58:56.086Z</time>
      </trkpt>
      <trkpt lat="51.312897" lon="12.405094">
        <ele>139.708535</ele>
        <time>2021-07-07T05:59:06.450Z</time>
      </trkpt>
      <trkpt lat="51.312863" lon="12.404910">
        <ele>139.509693</ele>
        <time>2021-07-07T05:59:18.745Z</time>
      </trkpt>
      <trkpt lat="51.312723" lon="12.404163">
        <ele>138.516813</ele>
        <time>2021-07-07T06:00:09.302Z</time>
      </trkpt>
      <trkpt lat="51.312716" lon="12.404057">
        <ele>138.380008</ele>
        <time>2021-07-07T06:00:16.774Z</time>
      </trkpt>
      <trkpt lat="51.312750" lon="12.403971">
        <ele>138.249404</ele>
        <time>2021-07-07T06:00:23.478Z</time>
      </trkpt>
      <trkpt lat="51.312776" lon="12.403908">
        <ele>138.152510</ele>
        <time>2021-07-07T06:00:28.304Z</time>
      </trkpt>
      <trkpt lat="51.312627" lon="12.403548">
        <ele>137.598349</ele>
        <time>2021-07-07T06:00:56.677Z</time>
      </trkpt>
      <trkpt lat="51.312091" lon="12.404036">
        <ele>136.332017</ele>
        <time>2021-07-07T06:02:00.923Z</time>
      </trkpt>
      <trkpt lat="51.311991" lon="12.404106">
        <ele>136.107888</ele>
        <time>2021-07-07T06:02:12.622Z</time>
      </trkpt>
      <trkpt lat="51.311991" lon="12.404106">
        <ele>136.107888</ele>
        <time>2021-07-07T06:02:12.622Z</time>
      </trkpt>
      <trkpt lat="51.311867" lon="12.404193">
        <ele>135.829864</ele>
        <time>2021-07-07T06:02:26.449Z</time>
      </trkpt>
      <trkpt lat="51.311592" lon="12.404318">
        <ele>135.558434</ele>
        <time>2021-07-07T06:02:56.235Z</time>
      </trkpt>
      <trkpt lat="51.311534" lon="12.404011">
        <ele>135.387409</ele>
        <time>2021-07-07T06:03:16.908Z</time>
      </trkpt>
      <trkpt lat="51.310878" lon="12.404225">
        <ele>134.816260</ele>
        <time>2021-07-07T06:04:24.893Z</time>
      </trkpt>
      <trkpt lat="51.310570" lon="12.404352">
        <ele>134.544918</ele>
        <time>2021-07-07T06:04:57.129Z</time>
      </trkpt>
      <trkpt lat="51.309367" lon="12.404847">
        <ele>134.149191</ele>
        <time>2021-07-07T06:07:02.090Z</time>
      </trkpt>
      <trkpt lat="51.309048" lon="12.404976">
        <ele>134.112726</ele>
        <time>2021-07-07T06:07:35.438Z</time>
      </trkpt>
      <trkpt lat="51.307645" lon="12.405522">
        <ele>133.586956</ele>
        <time>2021-07-07T06:10:00.291Z</time>
      </trkpt>
      <trkpt lat="51.307559" lon="12.405545">
        <ele>133.540587</ele>
        <time>2021-07-07T06:10:09.240Z</time>
      </trkpt>
      <trkpt lat="51.307232" lon="12.405665">
        <ele>133.362171</ele>
        <time>2021-07-07T06:10:43.453Z</time>
      </trkpt>
      <trkpt lat="51.306749" lon="12.405855">
        <ele>133.097658</ele>
        <time>2021-07-07T06:11:34.257Z</time>
      </trkpt>
      <trkpt lat="51.306147" lon="12.406088">
        <ele>133.092468</ele>
        <time>2021-07-07T06:12:37.564Z</time>
      </trkpt>
      <trkpt lat="51.306076" lon="12.405821">
        <ele>133.092468</ele>
        <time>2021-07-07T06:12:56.080Z</time>
      </trkpt>
      <trkpt lat="51.306013" lon="12.405589">
        <ele>133.092468</ele>
        <time>2021-07-07T06:13:12.315Z</time>
      </trkpt>
      <trkpt lat="51.305847" lon="12.405103">
        <ele>133.092468</ele>
        <time>2021-07-07T06:13:47.530Z</time>
      </trkpt>
      <trkpt lat="51.306358" lon="12.404209">
        <ele>133.092468</ele>
        <time>2021-07-07T06:15:03.966Z</time>
      </trkpt>
    </trkseg>
  </trk>
</gpx>